Time;durP1;ratioP1;P1;durP2;ratioP2;P2;SDS_P1;SDS_P2;PMS_P1;PMS_P2;Temp;Humidity;BMP_temperature;BMP_pressure;BME280_temperature;BME280_humidity;BME280_pressure;Samples;Min_cycle;Max_cycle;Signal;HPM_P1;HPM_P2
2023/12/17 00:00:52;;;;;;;3.25;1.80;;;11.10;99.90;;;;;;6122050;23;20008;-64
2023/12/17 00:03:17;;;;;;;2.80;1.70;;;11.10;99.90;;;;;;6122914;23;20479;-65
2023/12/17 00:05:43;;;;;;;3.63;2.30;;;11.10;99.90;;;;;;6122587;23;20002;-66
2023/12/17 00:08:08;;;;;;;2.35;1.80;;;11.10;99.90;;;;;;6121997;23;20029;-68
2023/12/17 00:10:34;;;;;;;2.13;1.55;;;11.00;99.90;;;;;;6121675;23;20009;-65
2023/12/17 00:12:59;;;;;;;3.03;2.08;;;11.10;99.90;;;;;;6121837;23;20052;-66
2023/12/17 00:15:25;;;;;;;2.50;1.75;;;11.10;99.90;;;;;;6122111;23;20048;-65
2023/12/17 00:17:50;;;;;;;2.70;1.85;;;11.10;99.90;;;;;;6122924;23;20081;-67
2023/12/17 00:20:16;;;;;;;3.85;2.20;;;11.10;99.90;;;;;;6121490;23;20377;-64
2023/12/17 00:22:41;;;;;;;3.05;2.03;;;11.10;99.90;;;;;;6121148;23;20010;-68
2023/12/17 00:25:07;;;;;;;2.10;1.60;;;11.10;99.90;;;;;;6121721;23;20056;-66
2023/12/17 00:27:33;;;;;;;1.88;1.40;;;11.10;99.90;;;;;;6121978;23;20089;-66
2023/12/17 00:29:58;;;;;;;2.20;1.65;;;11.10;99.90;;;;;;6121535;23;20026;-65
2023/12/17 00:32:24;;;;;;;4.07;2.28;;;11.10;99.90;;;;;;6122785;23;20013;-64
2023/12/17 00:34:49;;;;;;;3.10;1.77;;;11.10;99.90;;;;;;6121915;23;20496;-65
2023/12/17 00:37:15;;;;;;;3.10;1.60;;;11.10;99.90;;;;;;6121759;23;20454;-66
2023/12/17 00:39:40;;;;;;;2.28;1.33;;;11.10;99.90;;;;;;6121840;23;20002;-67
2023/12/17 00:42:06;;;;;;;2.50;1.42;;;11.10;99.90;;;;;;6121889;23;20085;-66
2023/12/17 00:44:31;;;;;;;2.22;1.65;;;11.20;99.90;;;;;;6122429;23;20006;-66
2023/12/17 00:46:57;;;;;;;2.40;1.55;;;11.10;99.90;;;;;;6122679;23;20419;-68
2023/12/17 00:49:22;;;;;;;1.77;1.27;;;11.10;99.90;;;;;;6121799;23;19998;-65
2023/12/17 00:51:48;;;;;;;1.90;1.50;;;11.10;99.90;;;;;;6122820;23;20448;-65
2023/12/17 00:54:14;;;;;;;1.45;1.30;;;11.20;99.90;;;;;;6121675;23;20010;-66
2023/12/17 00:56:39;;;;;;;2.08;1.40;;;11.20;99.90;;;;;;6122424;23;20066;-69
2023/12/17 00:59:05;;;;;;;1.88;1.10;;;11.20;99.90;;;;;;6121047;23;20009;-65
2023/12/17 01:01:30;;;;;;;1.77;1.30;;;11.20;99.90;;;;;;6121847;23;20017;-66
2023/12/17 01:03:56;;;;;;;1.10;1.00;;;11.20;99.90;;;;;;6122576;23;20006;-66
2023/12/17 01:06:21;;;;;;;1.20;1.00;;;11.30;99.90;;;;;;6122445;23;20002;-68
2023/12/17 01:08:47;;;;;;;1.23;1.13;;;11.30;99.90;;;;;;6122637;23;20002;-66
2023/12/17 01:11:12;;;;;;;2.38;1.50;;;11.30;99.90;;;;;;6120946;23;20330;-66
2023/12/17 01:13:38;;;;;;;1.83;1.52;;;11.30;99.90;;;;;;6122027;23;20419;-67
2023/12/17 01:16:04;;;;;;;1.17;1.08;;;11.30;99.90;;;;;;6121936;23;20041;-68
2023/12/17 01:18:30;;;;;;;2.80;1.73;;;11.20;99.90;;;;;;6121906;23;20028;-68
2023/12/17 01:20:58;;;;;;;2.83;1.80;;;11.30;99.90;;;;;;6121618;23;20021;-69
2023/12/17 01:23:23;;;;;;;2.53;1.42;;;11.20;99.90;;;;;;6122182;23;20006;-67
2023/12/17 01:25:49;;;;;;;2.72;1.60;;;11.20;99.90;;;;;;6096194;23;20013;-66
2023/12/17 01:28:14;;;;;;;2.70;1.50;;;11.20;99.90;;;;;;6121872;23;20451;-68
2023/12/17 01:30:40;;;;;;;2.03;1.30;;;11.20;99.90;;;;;;6121332;23;20026;-67
2023/12/17 01:33:06;;;;;;;1.80;1.40;;;11.20;99.90;;;;;;6121913;23;20002;-65
2023/12/17 01:35:31;;;;;;;1.80;1.55;;;11.20;99.90;;;;;;6121498;23;20033;-66
2023/12/17 01:37:57;;;;;;;1.77;1.13;;;11.20;99.90;;;;;;6121032;23;20061;-66
2023/12/17 01:40:22;;;;;;;1.63;1.17;;;11.20;99.90;;;;;;6120338;23;20002;-69
2023/12/17 01:42:51;;;;;;;2.05;1.40;;;11.30;99.90;;;;;;6121120;23;20009;-66
2023/12/17 01:45:16;;;;;;;2.10;1.42;;;11.20;99.90;;;;;;6120941;23;20085;-68
2023/12/17 01:47:42;;;;;;;2.40;1.60;;;11.20;99.90;;;;;;6120863;23;20054;-67
2023/12/17 01:50:08;;;;;;;2.08;1.45;;;11.20;99.90;;;;;;6120321;23;20002;-66
2023/12/17 01:52:34;;;;;;;2.33;1.55;;;11.20;99.90;;;;;;6120815;23;20044;-68
2023/12/17 01:55:01;;;;;;;1.67;1.25;;;11.20;99.90;;;;;;6095786;23;20488;-66
2023/12/17 01:57:26;;;;;;;1.48;1.23;;;11.20;99.90;;;;;;6120988;23;20009;-69
2023/12/17 01:59:53;;;;;;;1.98;1.20;;;11.20;99.90;;;;;;6120994;23;20411;-68
2023/12/17 02:02:18;;;;;;;1.35;1.13;;;11.20;99.90;;;;;;6120783;23;20013;-66
2023/12/17 02:04:44;;;;;;;1.95;1.27;;;11.20;99.90;;;;;;6120714;23;20006;-67
2023/12/17 02:07:10;;;;;;;2.00;1.20;;;11.20;99.90;;;;;;6119184;23;20002;-69
2023/12/17 02:09:35;;;;;;;1.98;1.35;;;11.20;99.90;;;;;;6119204;23;20009;-66
2023/12/17 02:12:01;;;;;;;1.73;1.38;;;11.20;99.90;;;;;;6121824;23;20002;-67
2023/12/17 02:14:26;;;;;;;2.63;1.80;;;11.20;99.90;;;;;;6120095;23;20368;-68
2023/12/17 02:16:52;;;;;;;2.45;1.30;;;11.20;99.90;;;;;;6120920;23;20086;-68
2023/12/17 02:19:18;;;;;;;2.58;1.50;;;11.10;99.90;;;;;;6120466;23;19998;-67
2023/12/17 02:21:43;;;;;;;2.95;1.73;;;11.10;99.90;;;;;;6121816;23;20435;-67
2023/12/17 02:24:09;;;;;;;1.98;1.40;;;11.10;99.90;;;;;;6121481;23;20080;-69
2023/12/17 02:26:34;;;;;;;2.50;1.40;;;11.20;99.90;;;;;;6121330;23;20002;-66
2023/12/17 02:29:00;;;;;;;1.73;1.30;;;11.10;99.90;;;;;;6090333;23;20015;-66
2023/12/17 02:31:25;;;;;;;2.65;1.70;;;11.20;99.90;;;;;;6092097;23;20073;-67
2023/12/17 02:33:51;;;;;;;1.75;1.48;;;11.20;99.90;;;;;;6091635;23;20348;-68
2023/12/17 02:36:16;;;;;;;2.10;1.58;;;11.20;99.90;;;;;;6091973;23;20002;-67
2023/12/17 02:38:42;;;;;;;2.13;1.60;;;11.10;99.90;;;;;;6091597;23;20030;-66
2023/12/17 02:41:07;;;;;;;2.15;1.50;;;11.20;99.90;;;;;;6090681;23;20014;-67
2023/12/17 02:43:33;;;;;;;2.22;1.50;;;11.20;99.90;;;;;;6091511;23;20013;-66
2023/12/17 02:45:58;;;;;;;1.80;1.40;;;11.20;99.90;;;;;;6092065;23;20035;-67
2023/12/17 02:48:24;;;;;;;1.65;1.30;;;11.20;99.90;;;;;;6091461;23;20009;-70
2023/12/17 02:50:49;;;;;;;1.75;1.30;;;11.20;99.90;;;;;;6091665;23;20018;-67
2023/12/17 02:53:15;;;;;;;1.55;1.42;;;11.20;99.90;;;;;;6092423;23;20006;-67
2023/12/17 02:55:41;;;;;;;1.58;1.02;;;11.20;99.90;;;;;;6091968;23;20028;-67
2023/12/17 02:58:06;;;;;;;1.90;1.40;;;11.20;99.90;;;;;;6091061;23;20394;-69
2023/12/17 03:00:32;;;;;;;1.92;1.17;;;11.20;99.90;;;;;;6091221;23;20601;-67
2023/12/17 03:02:57;;;;;;;2.92;1.58;;;11.20;99.90;;;;;;6092203;23;20344;-68
2023/12/17 03:05:23;;;;;;;1.42;1.10;;;11.20;99.90;;;;;;6091999;23;19998;-67
2023/12/17 03:07:48;;;;;;;2.35;1.30;;;11.20;99.90;;;;;;6092131;23;20428;-67
2023/12/17 03:10:14;;;;;;;1.90;1.35;;;11.10;99.90;;;;;;6091857;23;20077;-67
2023/12/17 03:12:39;;;;;;;2.20;1.45;;;11.10;99.90;;;;;;6091297;23;20006;-67
2023/12/17 03:15:05;;;;;;;2.20;1.50;;;11.10;99.90;;;;;;6091705;23;20003;-68
2023/12/17 03:17:31;;;;;;;1.63;1.30;;;11.10;99.90;;;;;;6091863;23;20003;-66
2023/12/17 03:19:57;;;;;;;1.67;1.10;;;11.20;99.90;;;;;;6091276;23;20014;-66
2023/12/17 03:22:22;;;;;;;4.05;2.08;;;11.20;99.80;;;;;;6092110;23;20006;-66
2023/12/17 03:24:48;;;;;;;3.63;1.70;;;11.20;99.80;;;;;;6092318;23;20006;-71
2023/12/17 03:27:13;;;;;;;2.45;1.60;;;11.20;99.80;;;;;;6091186;23;20001;-66
2023/12/17 03:29:39;;;;;;;2.97;1.65;;;11.10;99.70;;;;;;6117492;23;20006;-68
2023/12/17 03:32:04;;;;;;;3.15;1.40;;;11.20;99.80;;;;;;6120559;23;20002;-67
2023/12/17 03:34:30;;;;;;;2.80;1.40;;;11.20;99.70;;;;;;6120876;23;20006;-70
2023/12/17 03:36:56;;;;;;;1.75;1.23;;;11.20;99.70;;;;;;6123423;23;20006;-66
2023/12/17 03:39:21;;;;;;;4.00;1.90;;;11.30;99.60;;;;;;6122243;23;20029;-68
2023/12/17 03:41:47;;;;;;;2.20;1.63;;;11.20;99.50;;;;;;6123343;23;20374;-66
2023/12/17 03:44:12;;;;;;;2.63;1.60;;;11.20;99.50;;;;;;6123132;23;20012;-68
2023/12/17 03:46:38;;;;;;;2.33;1.30;;;11.20;99.60;;;;;;6123176;23;20053;-66
2023/12/17 03:49:03;;;;;;;3.15;1.88;;;11.20;99.60;;;;;;6122185;23;20006;-68
2023/12/17 03:51:29;;;;;;;3.95;1.70;;;11.20;99.60;;;;;;6122430;23;20415;-69
2023/12/17 03:53:54;;;;;;;4.45;2.35;;;11.10;99.50;;;;;;6122694;23;20002;-69
2023/12/17 03:56:22;;;;;;;3.08;1.75;;;11.10;99.50;;;;;;6122739;23;20026;-66
2023/12/17 03:58:48;;;;;;;4.43;2.08;;;11.10;99.60;;;;;;6123452;23;20628;-67
2023/12/17 04:01:13;;;;;;;2.65;1.73;;;11.10;99.60;;;;;;6121685;23;20089;-68
2023/12/17 04:03:39;;;;;;;2.88;1.85;;;11.20;99.60;;;;;;6122775;23;20014;-66
2023/12/17 04:06:07;;;;;;;4.88;1.90;;;11.10;99.60;;;;;;6122488;23;20002;-68
2023/12/17 04:08:33;;;;;;;3.55;2.25;;;11.10;99.60;;;;;;6122109;23;20012;-67
2023/12/17 04:10:59;;;;;;;2.78;2.00;;;11.10;99.90;;;;;;6122035;23;20069;-67
2023/12/17 04:13:24;;;;;;;5.05;1.80;;;11.10;99.70;;;;;;6122788;23;20374;-69
2023/12/17 04:15:50;;;;;;;4.78;2.17;;;11.10;99.70;;;;;;6123401;23;20012;-69
2023/12/17 04:18:16;;;;;;;3.90;2.10;;;11.10;99.60;;;;;;6122646;23;20009;-67
2023/12/17 04:20:41;;;;;;;4.13;1.63;;;11.10;99.60;;;;;;6122520;23;20006;-68
2023/12/17 04:23:07;;;;;;;3.47;1.83;;;11.10;99.60;;;;;;6122064;23;20010;-67
2023/12/17 04:25:33;;;;;;;2.85;2.00;;;11.00;99.60;;;;;;6122624;23;19997;-67
2023/12/17 04:27:58;;;;;;;3.75;1.70;;;11.00;99.60;;;;;;6091969;23;20010;-68
2023/12/17 04:30:24;;;;;;;2.83;1.60;;;11.00;99.60;;;;;;6092821;23;20011;-67
2023/12/17 04:32:49;;;;;;;2.70;1.70;;;11.00;99.70;;;;;;6093054;23;20013;-70
2023/12/17 04:35:16;;;;;;;3.60;1.70;;;11.00;99.60;;;;;;6093300;23;20086;-69
2023/12/17 04:37:41;;;;;;;2.22;1.30;;;11.00;99.70;;;;;;6093637;23;20006;-69
2023/12/17 04:40:08;;;;;;;1.67;1.40;;;11.00;99.70;;;;;;6092865;23;20094;-66
2023/12/17 04:42:33;;;;;;;3.92;1.67;;;11.00;99.70;;;;;;6092584;23;20009;-67
2023/12/17 04:44:59;;;;;;;1.60;1.17;;;10.90;99.60;;;;;;6093034;23;20002;-67
2023/12/17 04:47:24;;;;;;;2.45;1.50;;;10.90;99.70;;;;;;6092475;23;20006;-66
2023/12/17 04:49:50;;;;;;;2.05;1.30;;;10.90;99.70;;;;;;6093007;23;20431;-68
2023/12/17 04:52:15;;;;;;;2.70;1.60;;;11.00;99.80;;;;;;6093551;23;20006;-66
2023/12/17 04:54:41;;;;;;;2.50;1.50;;;11.00;99.60;;;;;;6093427;23;20073;-66
2023/12/17 04:57:06;;;;;;;1.85;1.50;;;10.90;99.60;;;;;;6093204;23;20006;-67
2023/12/17 04:59:32;;;;;;;2.20;1.60;;;10.90;99.60;;;;;;6091931;23;20006;-67
2023/12/17 05:01:57;;;;;;;2.17;1.48;;;10.90;99.80;;;;;;6090607;23;20009;-66
2023/12/17 05:04:23;;;;;;;2.35;1.50;;;10.90;99.80;;;;;;6093101;23;20077;-67
2023/12/17 05:06:48;;;;;;;2.33;1.45;;;10.90;99.90;;;;;;6092586;23;20081;-68
2023/12/17 05:09:14;;;;;;;1.75;1.48;;;10.90;99.90;;;;;;6092362;23;20057;-68
2023/12/17 05:11:39;;;;;;;2.88;1.90;;;10.80;99.90;;;;;;6093315;23;20082;-66
2023/12/17 05:14:05;;;;;;;3.13;1.95;;;10.80;99.90;;;;;;6093045;23;20006;-67
2023/12/17 05:16:30;;;;;;;3.63;2.30;;;10.90;99.90;;;;;;6093162;23;20065;-67
2023/12/17 05:18:56;;;;;;;3.88;1.77;;;10.90;99.90;;;;;;6092675;23;20085;-68
2023/12/17 05:21:22;;;;;;;3.15;1.98;;;10.90;99.90;;;;;;6092581;23;20439;-67
2023/12/17 05:23:48;;;;;;;3.80;2.00;;;10.90;99.90;;;;;;6092463;23;20077;-67
2023/12/17 05:26:14;;;;;;;3.08;1.83;;;10.90;99.90;;;;;;6092954;23;20093;-67
2023/12/17 05:28:41;;;;;;;4.18;2.33;;;10.90;99.90;;;;;;6104791;23;20009;-65
2023/12/17 05:31:07;;;;;;;4.35;2.38;;;10.90;99.80;;;;;;6095582;23;20010;-70
2023/12/17 05:33:33;;;;;;;4.07;2.50;;;11.00;99.80;;;;;;6122134;23;20104;-69
2023/12/17 05:35:59;;;;;;;3.20;2.00;;;10.90;99.80;;;;;;6122080;23;20037;-66
2023/12/17 05:38:28;;;;;;;3.65;2.00;;;10.90;99.90;;;;;;6122191;23;20056;-67
2023/12/17 05:40:54;;;;;;;3.85;2.28;;;10.90;99.90;;;;;;6121665;23;20049;-66
2023/12/17 05:43:20;;;;;;;3.53;2.10;;;10.90;99.90;;;;;;6121986;23;20014;-67
2023/12/17 05:45:45;;;;;;;4.63;2.70;;;11.00;99.90;;;;;;6121932;23;20048;-67
2023/12/17 05:48:11;;;;;;;5.22;2.92;;;10.90;99.90;;;;;;6121795;23;19998;-68
2023/12/17 05:50:36;;;;;;;5.95;3.15;;;10.90;99.80;;;;;;6121451;23;20002;-68
2023/12/17 05:53:02;;;;;;;7.18;3.50;;;10.90;99.90;;;;;;6121582;23;20431;-66
2023/12/17 05:55:28;;;;;;;7.45;3.72;;;10.90;99.90;;;;;;6120577;23;20008;-66
2023/12/17 05:57:53;;;;;;;5.03;3.08;;;10.80;99.90;;;;;;6120872;23;20021;-66
2023/12/17 06:00:19;;;;;;;7.32;3.65;;;10.80;99.90;;;;;;6120783;23;20028;-69
2023/12/17 06:02:45;;;;;;;8.10;4.40;;;10.90;99.90;;;;;;6121811;23;20133;-65
2023/12/17 06:05:11;;;;;;;7.40;3.72;;;10.80;99.90;;;;;;6121024;23;20005;-66
2023/12/17 06:07:36;;;;;;;6.72;3.65;;;10.90;99.90;;;;;;6121289;23;20002;-67
2023/12/17 06:10:02;;;;;;;5.63;3.42;;;10.80;99.90;;;;;;6121476;23;20419;-68
2023/12/17 06:12:27;;;;;;;5.85;3.47;;;10.90;99.90;;;;;;6121915;23;20040;-69
2023/12/17 06:14:53;;;;;;;7.93;4.18;;;10.90;99.90;;;;;;6119890;23;20430;-65
2023/12/17 06:17:18;;;;;;;8.27;3.97;;;10.80;99.90;;;;;;6121754;23;20081;-67
2023/12/17 06:19:44;;;;;;;7.15;3.97;;;10.90;99.90;;;;;;6120622;23;20017;-67
2023/12/17 06:22:15;;;;;;;7.63;3.97;;;10.90;99.90;;;;;;6121246;23;20009;-67
2023/12/17 06:24:40;;;;;;;6.73;3.97;;;10.90;99.90;;;;;;6120711;23;19998;-66
2023/12/17 06:27:06;;;;;;;7.55;3.80;;;10.90;99.90;;;;;;6121854;23;20009;-67
2023/12/17 06:29:32;;;;;;;7.40;3.63;;;10.90;99.90;;;;;;6118459;23;20101;-64
2023/12/17 06:31:58;;;;;;;5.18;2.65;;;10.90;99.90;;;;;;6121366;23;19998;-68
2023/12/17 06:34:25;;;;;;;7.40;3.63;;;10.90;99.90;;;;;;6121714;23;20010;-65
2023/12/17 06:36:50;;;;;;;6.03;3.45;;;10.90;99.90;;;;;;6121336;23;20018;-66
2023/12/17 06:39:16;;;;;;;5.63;2.78;;;10.90;99.90;;;;;;6120499;23;20033;-67
2023/12/17 06:41:44;;;;;;;5.30;3.13;;;10.90;99.90;;;;;;6121307;23;20339;-65
2023/12/17 06:44:10;;;;;;;5.72;3.22;;;10.90;99.90;;;;;;6120882;23;20010;-66
2023/12/17 06:46:36;;;;;;;5.93;2.97;;;10.90;99.90;;;;;;6121959;23;20056;-66
2023/12/17 06:49:01;;;;;;;5.93;3.50;;;11.00;99.90;;;;;;6121053;23;20009;-67
2023/12/17 06:51:27;;;;;;;5.60;2.92;;;10.90;99.90;;;;;;6120160;23;20002;-63
2023/12/17 06:53:52;;;;;;;5.97;3.30;;;10.90;99.90;;;;;;6121021;23;20012;-65
2023/12/17 06:56:19;;;;;;;5.60;3.05;;;10.90;99.90;;;;;;6121122;23;20002;-66
2023/12/17 06:58:44;;;;;;;3.33;2.10;;;10.90;99.90;;;;;;6120746;23;20021;-66
2023/12/17 07:01:11;;;;;;;4.80;2.67;;;10.90;99.90;;;;;;6119379;23;20423;-65
2023/12/17 07:03:37;;;;;;;6.10;3.30;;;10.90;99.80;;;;;;6121155;23;20009;-65
2023/12/17 07:06:03;;;;;;;5.75;3.00;;;10.90;99.80;;;;;;6121246;23;20331;-67
2023/12/17 07:08:29;;;;;;;5.38;3.13;;;10.90;99.90;;;;;;6120833;23;20109;-66
2023/12/17 07:10:54;;;;;;;4.95;2.92;;;10.80;99.80;;;;;;6120440;23;20466;-65
2023/12/17 07:13:20;;;;;;;5.50;3.25;;;10.80;99.80;;;;;;6120753;23;20380;-67
2023/12/17 07:15:45;;;;;;;6.03;3.10;;;10.80;99.90;;;;;;6120622;23;20455;-65
2023/12/17 07:18:11;;;;;;;3.33;2.30;;;10.80;99.80;;;;;;6120892;23;20009;-65
2023/12/17 07:20:37;;;;;;;4.80;2.70;;;10.80;99.80;;;;;;6121149;23;20010;-65
2023/12/17 07:23:03;;;;;;;4.68;2.58;;;10.80;99.80;;;;;;6120279;23;20085;-68
2023/12/17 07:25:28;;;;;;;4.70;2.55;;;10.80;99.80;;;;;;6120684;23;20077;-64
2023/12/17 07:27:54;;;;;;;3.92;2.20;;;10.80;99.80;;;;;;6120588;23;20002;-66
2023/12/17 07:30:20;;;;;;;5.05;2.97;;;10.80;99.80;;;;;;6120236;23;20006;-65
2023/12/17 07:32:47;;;;;;;4.88;2.83;;;10.80;99.70;;;;;;6120524;23;20013;-64
2023/12/17 07:35:14;;;;;;;5.13;2.90;;;10.80;99.60;;;;;;6119915;23;20009;-64
2023/12/17 07:37:40;;;;;;;4.72;2.72;;;10.80;99.70;;;;;;6121364;23;20002;-64
2023/12/17 07:40:06;;;;;;;5.60;3.13;;;10.80;99.60;;;;;;6120549;23;20006;-67
2023/12/17 07:42:32;;;;;;;4.57;2.78;;;10.80;99.60;;;;;;6120947;23;20013;-65
2023/12/17 07:44:58;;;;;;;5.18;3.25;;;10.70;99.60;;;;;;6120487;23;20364;-67
2023/12/17 07:47:23;;;;;;;4.68;2.65;;;10.70;99.70;;;;;;6120296;23;20053;-66
2023/12/17 07:49:49;;;;;;;7.30;3.22;;;10.80;99.70;;;;;;6119326;23;20049;-66
2023/12/17 07:52:15;;;;;;;5.35;3.38;;;10.80;99.70;;;;;;6119833;23;20435;-66
2023/12/17 07:54:40;;;;;;;6.35;3.58;;;10.80;99.60;;;;;;6120910;23;20383;-66
2023/12/17 07:57:06;;;;;;;7.03;4.18;;;10.80;99.60;;;;;;6120246;23;20061;-66
2023/12/17 07:59:31;;;;;;;5.90;2.95;;;10.80;99.50;;;;;;6120189;23;20056;-66
2023/12/17 08:01:57;;;;;;;8.43;4.43;;;10.80;99.50;;;;;;6119258;23;20002;-65
2023/12/17 08:04:23;;;;;;;9.45;5.13;;;10.80;99.40;;;;;;6119932;23;20348;-66
2023/12/17 08:06:48;;;;;;;10.80;5.95;;;10.80;99.40;;;;;;6120098;23;20049;-66
2023/12/17 08:09:15;;;;;;;12.38;5.85;;;10.80;99.30;;;;;;6119553;23;20081;-68
2023/12/17 08:11:41;;;;;;;15.20;7.85;;;10.80;99.30;;;;;;6119974;23;20005;-67
2023/12/17 08:14:07;;;;;;;12.73;6.18;;;10.70;99.40;;;;;;6120600;23;20006;-66
2023/12/17 08:16:32;;;;;;;12.48;6.03;;;10.70;99.50;;;;;;6120300;23;20442;-67
2023/12/17 08:18:58;;;;;;;10.75;4.93;;;10.70;99.40;;;;;;6118903;23;20110;-68
2023/12/17 08:21:23;;;;;;;15.27;7.32;;;10.60;99.50;;;;;;6120392;23;20005;-68
2023/12/17 08:23:49;;;;;;;12.07;6.50;;;10.60;99.50;;;;;;6121888;23;20034;-66
2023/12/17 08:26:14;;;;;;;12.10;5.15;;;10.60;99.60;;;;;;6121588;23;20009;-66
2023/12/17 08:28:40;;;;;;;12.82;6.28;;;10.60;99.70;;;;;;6122427;23;20012;-67
2023/12/17 08:31:09;;;;;;;15.82;7.35;;;10.60;99.70;;;;;;6121799;23;20006;-66
2023/12/17 08:33:38;;;;;;;10.48;5.32;;;10.60;99.70;;;;;;6121784;23;20006;-66
2023/12/17 08:36:04;;;;;;;12.88;5.95;;;10.60;99.70;;;;;;6122664;23;20443;-70
2023/12/17 08:38:30;;;;;;;11.85;6.18;;;10.60;99.70;;;;;;6122238;23;20001;-67
2023/12/17 08:40:56;;;;;;;17.42;8.68;;;10.50;99.60;;;;;;6121232;23;20558;-69
2023/12/17 08:43:22;;;;;;;16.13;7.90;;;10.50;99.60;;;;;;6120803;23;20038;-65
2023/12/17 08:45:47;;;;;;;13.57;6.85;;;10.40;99.70;;;;;;6122772;23;20005;-65
2023/12/17 08:48:13;;;;;;;11.15;5.90;;;10.50;99.70;;;;;;6122027;23;20002;-70
2023/12/17 08:50:38;;;;;;;17.70;7.40;;;10.50;99.90;;;;;;6119091;23;20006;-69
2023/12/17 08:53:04;;;;;;;13.55;6.70;;;10.40;99.60;;;;;;6121222;23;20013;-66
2023/12/17 08:55:30;;;;;;;12.90;6.60;;;10.40;99.60;;;;;;6096037;23;20013;-65
2023/12/17 08:57:55;;;;;;;11.63;5.47;;;10.40;99.50;;;;;;6121835;23;20002;-66
2023/12/17 09:00:21;;;;;;;9.27;4.68;;;10.40;99.50;;;;;;6121584;23;20342;-66
2023/12/17 09:02:46;;;;;;;10.15;5.05;;;10.50;99.60;;;;;;6121667;23;20064;-67
2023/12/17 09:05:12;;;;;;;9.82;4.80;;;10.50;99.50;;;;;;6120868;23;20005;-65
2023/12/17 09:07:38;;;;;;;9.55;5.05;;;10.50;99.40;;;;;;6121838;23;20009;-65
2023/12/17 09:10:04;;;;;;;9.80;4.93;;;10.50;99.40;;;;;;6114386;23;20343;-66
2023/12/17 09:12:30;;;;;;;11.85;5.93;;;10.60;99.40;;;;;;6091523;23;20077;-65
2023/12/17 09:14:55;;;;;;;10.48;5.60;;;10.50;99.20;;;;;;6120168;23;20394;-65
2023/12/17 09:17:21;;;;;;;15.15;7.30;;;10.50;99.30;;;;;;6119686;23;20074;-65
2023/12/17 09:19:47;;;;;;;12.30;6.63;;;10.50;99.20;;;;;;6119777;23;20072;-66
2023/12/17 09:22:13;;;;;;;10.38;5.13;;;10.50;99.30;;;;;;6120143;23;20006;-68
2023/12/17 09:24:39;;;;;;;7.75;4.50;;;10.50;99.10;;;;;;6120299;23;20005;-66
2023/12/17 09:27:05;;;;;;;12.75;5.82;;;10.50;99.10;;;;;;6117932;23;20400;-67
2023/12/17 09:29:30;;;;;;;7.53;4.07;;;10.50;99.00;;;;;;6119288;23;20017;-66
2023/12/17 09:31:56;;;;;;;8.02;3.90;;;10.50;99.10;;;;;;6119414;23;19998;-64
2023/12/17 09:34:21;;;;;;;7.03;3.70;;;10.50;99.10;;;;;;6119375;23;20012;-66
2023/12/17 09:36:47;;;;;;;9.35;4.63;;;10.50;99.10;;;;;;6119696;23;20010;-67
2023/12/17 09:39:13;;;;;;;8.23;4.28;;;10.50;99.10;;;;;;6118957;23;20030;-67
2023/12/17 09:41:41;;;;;;;9.50;5.05;;;10.50;99.10;;;;;;6119780;23;20556;-64
2023/12/17 09:44:07;;;;;;;9.45;5.28;;;10.40;99.00;;;;;;6119622;23;20058;-66
2023/12/17 09:46:35;;;;;;;8.10;4.38;;;10.40;99.10;;;;;;6120101;23;20335;-66
2023/12/17 09:49:01;;;;;;;9.20;4.10;;;10.30;99.00;;;;;;6119971;23;19998;-66
2023/12/17 09:51:27;;;;;;;7.38;3.70;;;10.30;99.20;;;;;;6119534;23;20006;-66
2023/12/17 09:53:57;;;;;;;6.20;3.67;;;10.30;99.20;;;;;;6119992;23;20001;-66
2023/12/17 09:56:23;;;;;;;7.38;3.72;;;10.30;99.20;;;;;;6119928;23;20009;-66
2023/12/17 09:58:48;;;;;;;10.18;5.20;;;10.40;99.50;;;;;;6118779;23;20006;-66
2023/12/17 10:01:14;;;;;;;12.27;5.68;;;10.30;99.20;;;;;;6118144;23;20085;-66
2023/12/17 10:03:40;;;;;;;11.45;5.40;;;10.30;99.20;;;;;;6119641;23;20006;-65
2023/12/17 10:06:06;;;;;;;10.20;4.55;;;10.30;99.20;;;;;;6119817;23;20017;-67
2023/12/17 10:08:32;;;;;;;10.40;4.68;;;10.40;99.20;;;;;;6117910;23;19998;-67
2023/12/17 10:10:58;;;;;;;9.95;4.57;;;10.40;99.10;;;;;;6118450;23;20564;-65
2023/12/17 10:13:24;;;;;;;9.88;4.78;;;10.40;99.20;;;;;;6118859;23;20006;-65
2023/12/17 10:15:54;;;;;;;9.73;4.25;;;10.40;99.10;;;;;;6118669;23;20096;-68
2023/12/17 10:18:20;;;;;;;9.52;4.95;;;10.40;99.10;;;;;;6117110;23;20009;-65
2023/12/17 10:20:47;;;;;;;6.80;3.78;;;10.40;99.10;;;;;;6092027;23;20696;-65
2023/12/17 10:23:13;;;;;;;8.15;4.30;;;10.30;99.10;;;;;;6119644;23;20006;-66
2023/12/17 10:25:39;;;;;;;5.93;3.45;;;10.40;99.10;;;;;;6118761;23;20427;-66
2023/12/17 10:28:05;;;;;;;8.10;4.50;;;10.40;99.10;;;;;;6119541;23;20036;-66
2023/12/17 10:30:33;;;;;;;6.65;3.67;;;10.40;99.00;;;;;;6092098;23;20435;-65
2023/12/17 10:33:00;;;;;;;7.95;4.15;;;10.30;99.00;;;;;;6119393;23;20002;-66
2023/12/17 10:35:27;;;;;;;7.40;3.88;;;10.20;99.10;;;;;;6118542;23;20037;-66
2023/12/17 10:37:57;;;;;;;7.75;4.00;;;10.20;99.30;;;;;;6120102;23;20006;-66
2023/12/17 10:40:24;;;;;;;5.63;3.13;;;10.20;99.40;;;;;;6118838;23;20021;-68
2023/12/17 10:42:50;;;;;;;9.10;4.75;;;10.20;99.40;;;;;;6119538;23;20010;-67
2023/12/17 10:45:21;;;;;;;8.52;5.18;;;10.20;99.30;;;;;;6118350;23;20006;-69
2023/12/17 10:47:56;;;;;;;6.13;3.28;;;10.10;99.30;;;;;;6119525;23;20008;-66
2023/12/17 10:50:22;;;;;;;6.03;3.70;;;10.10;99.40;;;;;;6118774;23;20006;-69
2023/12/17 10:52:48;;;;;;;7.82;4.03;;;10.00;99.40;;;;;;6118666;23;20430;-66
2023/12/17 10:55:17;;;;;;;6.60;3.33;;;10.00;99.30;;;;;;6119493;23;20058;-66
2023/12/17 10:58:08;;;;;;;5.25;3.10;;;9.90;99.40;;;;;;6119628;23;20334;-66
2023/12/17 11:00:37;;;;;;;4.90;3.00;;;10.00;99.50;;;;;;6098894;23;20006;-65
2023/12/17 11:03:05;;;;;;;6.43;3.70;;;9.90;99.40;;;;;;6119424;23;20013;-68
2023/12/17 11:05:31;;;;;;;4.90;2.88;;;9.80;99.40;;;;;;6119505;23;20061;-65
2023/12/17 11:07:56;;;;;;;6.25;3.47;;;9.80;99.50;;;;;;6118949;23;20005;-65
2023/12/17 11:10:23;;;;;;;5.60;2.85;;;9.80;99.50;;;;;;6117951;23;20034;-66
2023/12/17 11:12:49;;;;;;;6.18;3.40;;;9.80;99.60;;;;;;6119314;23;20001;-65
2023/12/17 11:15:23;;;;;;;7.10;3.67;;;9.80;99.60;;;;;;6119090;23;20034;-65
2023/12/17 11:17:53;;;;;;;5.00;3.00;;;9.70;99.60;;;;;;6120097;23;20451;-65
2023/12/17 11:20:18;;;;;;;4.13;2.80;;;9.70;99.70;;;;;;6118664;23;20312;-66
2023/12/17 11:22:46;;;;;;;6.68;3.70;;;9.80;99.70;;;;;;6119178;23;20029;-66
2023/12/17 11:25:12;;;;;;;6.40;3.60;;;9.80;99.60;;;;;;6117715;23;20312;-65
2023/12/17 11:27:38;;;;;;;8.52;4.50;;;9.80;99.50;;;;;;6116434;23;20017;-66
2023/12/17 11:30:24;;;;;;;6.88;4.00;;;9.80;99.50;;;;;;6116900;23;20006;-65
2023/12/17 11:32:50;;;;;;;7.78;4.32;;;9.80;99.50;;;;;;6119202;23;20093;-65
2023/12/17 11:35:16;;;;;;;7.03;4.15;;;9.90;99.50;;;;;;6118486;23;20029;-67
2023/12/17 11:37:42;;;;;;;9.00;5.03;;;9.90;99.40;;;;;;6118217;23;20360;-67
2023/12/17 11:40:09;;;;;;;8.93;4.93;;;9.90;99.30;;;;;;6119053;23;20347;-67
2023/12/17 11:42:40;;;;;;;12.02;5.45;;;9.80;99.20;;;;;;6119388;23;20010;-68
2023/12/17 11:45:06;;;;;;;9.80;5.40;;;9.90;99.20;;;;;;6093069;23;20003;-66
2023/12/17 11:47:32;;;;;;;9.35;5.28;;;9.90;99.20;;;;;;6093381;23;20339;-65
2023/12/17 11:49:59;;;;;;;9.55;5.45;;;9.90;99.10;;;;;;6118992;23;20089;-66
2023/12/17 11:52:25;;;;;;;11.43;5.95;;;9.90;99.00;;;;;;6119451;23;20065;-64
2023/12/17 11:54:58;;;;;;;15.07;7.15;;;10.00;98.90;;;;;;6092825;23;20006;-66
2023/12/17 11:57:27;;;;;;;11.40;6.22;;;10.00;98.70;;;;;;6121932;23;20025;-66
2023/12/17 11:59:53;;;;;;;11.00;5.22;;;10.00;98.70;;;;;;6121252;23;20002;-67
2023/12/17 12:02:20;;;;;;;9.15;5.15;;;10.00;98.60;;;;;;6120758;23;20090;-67
2023/12/17 12:04:47;;;;;;;9.88;5.00;;;10.10;98.60;;;;;;6121087;23;20009;-67
2023/12/17 12:07:17;;;;;;;7.30;4.55;;;10.20;98.50;;;;;;6121405;23;20347;-67
2023/12/17 12:09:47;;;;;;;15.77;7.82;;;10.30;98.40;;;;;;6094411;23;20141;-66
2023/12/17 12:12:23;;;;;;;16.10;8.20;;;10.30;98.10;;;;;;6095446;23;20002;-66
2023/12/17 12:14:50;;;;;;;11.57;6.22;;;10.20;98.00;;;;;;6121287;23;19998;-67
2023/12/17 12:17:35;;;;;;;10.13;5.32;;;10.20;98.00;;;;;;6095032;23;20923;-66
2023/12/17 12:20:01;;;;;;;11.45;6.10;;;10.30;97.90;;;;;;6120921;23;20020;-66
2023/12/17 12:22:28;;;;;;;14.13;7.32;;;10.30;97.70;;;;;;6121519;23;20002;-68
2023/12/17 12:24:55;;;;;;;11.00;5.63;;;10.30;97.50;;;;;;6120888;23;20081;-67
2023/12/17 12:27:21;;;;;;;10.00;5.90;;;10.40;97.80;;;;;;6121316;23;20033;-66
2023/12/17 12:29:48;;;;;;;12.27;5.82;;;10.90;97.10;;;;;;6120500;23;20006;-66
2023/12/17 12:32:25;;;;;;;12.40;5.20;;;11.30;96.80;;;;;;6121398;23;20053;-66
2023/12/17 12:34:53;;;;;;;12.50;6.32;;;11.70;96.10;;;;;;6120410;23;20093;-68
2023/12/17 12:37:35;;;;;;;11.40;6.20;;;12.10;95.00;;;;;;6121138;23;20016;-65
2023/12/17 12:40:00;;;;;;;11.48;6.45;;;12.10;94.60;;;;;;6120679;23;20006;-65